Time;durP1;ratioP1;P1;durP2;ratioP2;P2;SDS_P1;SDS_P2;PMS_P1;PMS_P2;Temp;Humidity;BMP_temperature;BMP_pressure;BME280_temperature;BME280_humidity;BME280_pressure;Samples;Min_cycle;Max_cycle;Signal;HPM_P1;HPM_P2
2022/09/08 00:00:35;;;;;;;2.95;2.33;;;19.00;99.90;;;;;;5073473;28;20115;-76
2022/09/08 00:03:04;;;;;;;6.15;2.20;;;18.90;99.90;;;;;;5072935;28;20025;-77
2022/09/08 00:05:31;;;;;;;5.47;2.65;;;18.90;99.90;;;;;;5070593;28;20033;-77
2022/09/08 00:07:58;;;;;;;4.80;2.35;;;18.90;99.90;;;;;;5072071;28;20035;-77
2022/09/08 00:10:25;;;;;;;4.55;2.88;;;18.90;99.90;;;;;;5072997;28;20037;-76
2022/09/08 00:12:51;;;;;;;5.88;2.40;;;18.90;99.90;;;;;;5072371;28;20104;-75
2022/09/08 00:15:16;;;;;;;3.50;2.50;;;18.90;99.90;;;;;;5046616;28;20127;-77
2022/09/08 00:17:42;;;;;;;4.60;2.40;;;18.90;99.90;;;;;;5072832;28;20052;-77
2022/09/08 00:20:09;;;;;;;4.85;2.47;;;18.90;99.90;;;;;;5071610;28;20048;-77
2022/09/08 00:22:35;;;;;;;3.72;2.42;;;18.80;99.90;;;;;;5072684;28;20393;-77
2022/09/08 00:25:00;;;;;;;8.27;3.35;;;18.80;99.90;;;;;;5071737;28;20030;-77
2022/09/08 00:27:26;;;;;;;6.38;2.65;;;18.80;99.90;;;;;;5072689;28;20162;-76
2022/09/08 00:29:52;;;;;;;5.22;2.75;;;18.80;99.90;;;;;;5071559;28;20086;-79
2022/09/08 00:32:20;;;;;;;6.13;2.83;;;18.80;99.90;;;;;;5072701;28;20028;-78
2022/09/08 00:34:46;;;;;;;4.65;3.08;;;18.80;99.90;;;;;;5070783;28;20044;-77
2022/09/08 00:37:12;;;;;;;4.88;2.75;;;18.80;99.90;;;;;;5071202;28;20037;-77
2022/09/08 00:39:37;;;;;;;5.20;2.63;;;18.70;99.90;;;;;;5072115;28;20473;-78
2022/09/08 00:42:05;;;;;;;6.32;3.25;;;18.70;99.90;;;;;;5071173;28;20020;-76
2022/09/08 00:44:39;;;;;;;3.25;2.72;;;18.70;99.90;;;;;;5072234;28;20028;-74
2022/09/08 00:47:24;;;;;;;6.20;2.95;;;18.70;99.90;;;;;;5064173;28;20115;-76
2022/09/08 00:50:00;;;;;;;4.57;2.67;;;18.70;99.90;;;;;;5071943;28;20523;-72
2022/09/08 00:52:31;;;;;;;5.85;2.60;;;18.70;99.90;;;;;;5072190;28;20378;-76
2022/09/08 00:54:57;;;;;;;5.78;2.55;;;18.70;99.90;;;;;;5070804;28;20024;-76
2022/09/08 00:57:23;;;;;;;4.75;2.80;;;18.70;99.90;;;;;;5071513;28;20046;-76
2022/09/08 00:59:50;;;;;;;6.60;3.00;;;18.60;99.90;;;;;;5071592;28;20437;-73
2022/09/08 01:02:23;;;;;;;5.68;3.45;;;18.60;99.90;;;;;;5071820;28;20032;-77
2022/09/08 01:05:11;;;;;;;6.35;3.30;;;18.60;99.90;;;;;;5071518;28;20055;-73
2022/09/08 01:13:27;;;;;;;4.90;3.13;;;18.40;99.90;;;;;;5071567;28;20040;-79
2022/09/08 01:15:55;;;;;;;4.90;3.47;;;18.30;99.90;;;;;;5071025;28;20028;-73
2022/09/08 01:18:21;;;;;;;6.35;3.38;;;18.20;99.90;;;;;;5071915;28;20400;-79
2022/09/08 01:21:13;;;;;;;5.03;3.90;;;18.20;99.90;;;;;;5071418;28;20082;-80
2022/09/08 01:23:57;;;;;;;5.60;3.67;;;18.10;99.90;;;;;;5071570;28;20056;-76
2022/09/08 01:26:50;;;;;;;4.90;3.88;;;18.10;99.90;;;;;;5071202;28;20471;-80
2022/09/08 01:29:16;;;;;;;7.07;3.58;;;18.00;99.90;;;;;;5071098;28;20032;-78
2022/09/08 01:31:43;;;;;;;7.68;3.97;;;18.00;99.90;;;;;;5071357;28;20036;-78
2022/09/08 01:34:09;;;;;;;4.30;3.90;;;18.00;99.90;;;;;;5070713;28;20850;-79
2022/09/08 01:36:35;;;;;;;6.03;3.80;;;17.90;99.90;;;;;;5071010;28;20102;-78
2022/09/08 01:39:01;;;;;;;8.35;4.55;;;17.90;99.90;;;;;;5070771;28;20273;-78
2022/09/08 01:41:27;;;;;;;6.15;3.97;;;17.80;99.90;;;;;;5071506;28;20028;-77
2022/09/08 01:43:52;;;;;;;5.72;3.90;;;17.90;99.90;;;;;;5069582;28;20112;-73
2022/09/08 01:46:18;;;;;;;6.68;3.95;;;17.80;99.90;;;;;;5071091;28;20385;-78
2022/09/08 01:48:44;;;;;;;8.43;4.40;;;17.80;99.90;;;;;;5071686;28;20035;-79
2022/09/08 01:51:10;;;;;;;8.48;3.95;;;17.80;99.90;;;;;;5070977;27;20048;-77
2022/09/08 01:53:36;;;;;;;7.25;3.92;;;17.80;99.90;;;;;;5071138;28;20056;-77
2022/09/08 01:56:04;;;;;;;8.38;4.53;;;17.80;99.90;;;;;;5070475;28;20037;-77
2022/09/08 01:58:30;;;;;;;4.43;3.88;;;17.70;99.90;;;;;;5071511;28;20035;-75
2022/09/08 02:00:56;;;;;;;4.70;4.13;;;17.70;99.90;;;;;;5070234;28;20415;-76
2022/09/08 02:03:22;;;;;;;4.60;3.72;;;17.70;99.90;;;;;;5071055;28;20033;-75
2022/09/08 02:05:47;;;;;;;4.57;3.75;;;17.70;99.90;;;;;;5071035;28;20389;-76
2022/09/08 02:08:13;;;;;;;8.05;3.90;;;17.70;99.90;;;;;;5074124;28;20108;-78
2022/09/08 02:10:39;;;;;;;10.23;3.80;;;17.70;99.90;;;;;;5075076;28;20039;-79
2022/09/08 02:13:05;;;;;;;5.20;3.28;;;17.70;99.90;;;;;;5074480;28;20043;-79
2022/09/08 02:15:31;;;;;;;5.32;3.10;;;17.70;99.90;;;;;;5074960;28;20046;-78
2022/09/08 02:17:57;;;;;;;5.38;3.35;;;17.80;99.90;;;;;;5073862;28;20033;-77
2022/09/08 02:20:23;;;;;;;4.78;2.80;;;17.80;99.90;;;;;;5074626;28;20043;-77
2022/09/08 02:22:51;;;;;;;7.05;2.63;;;17.80;99.90;;;;;;5074899;28;20074;-76
2022/09/08 02:25:16;;;;;;;5.20;2.65;;;17.80;99.90;;;;;;5056601;28;20540;-75
2022/09/08 02:27:42;;;;;;;5.15;2.50;;;17.80;99.90;;;;;;5074875;28;20111;-78
2022/09/08 02:30:08;;;;;;;2.55;2.10;;;17.80;99.90;;;;;;5073940;28;20051;-77
2022/09/08 02:32:35;;;;;;;3.55;1.90;;;17.80;99.90;;;;;;5074542;28;20032;-77
2022/09/08 02:35:01;;;;;;;5.82;1.80;;;17.80;99.90;;;;;;5074033;28;20028;-77
2022/09/08 02:37:27;;;;;;;7.47;2.22;;;17.80;99.90;;;;;;5074666;28;20063;-77
2022/09/08 02:39:52;;;;;;;2.90;1.92;;;17.80;99.90;;;;;;5074458;28;20056;-73
2022/09/08 02:42:18;;;;;;;5.28;2.20;;;17.80;99.90;;;;;;5073922;28;20029;-77
2022/09/08 02:44:44;;;;;;;5.55;2.00;;;17.80;99.90;;;;;;5074619;28;20082;-76
2022/09/08 02:47:10;;;;;;;3.03;1.98;;;17.80;99.90;;;;;;5071136;28;20032;-77
2022/09/08 02:49:36;;;;;;;4.45;1.80;;;17.80;99.90;;;;;;5074246;28;20035;-76
2022/09/08 02:52:01;;;;;;;6.47;2.00;;;17.80;99.90;;;;;;5073902;27;20052;-77
2022/09/08 02:54:27;;;;;;;1.70;1.60;;;17.70;99.90;;;;;;5074436;28;20050;-77
2022/09/08 02:56:53;;;;;;;4.80;1.80;;;17.70;99.90;;;;;;5074577;28;20052;-73
2022/09/08 02:59:18;;;;;;;2.42;2.03;;;17.70;99.90;;;;;;5073942;28;20108;-79
2022/09/08 03:01:44;;;;;;;4.63;1.48;;;17.70;99.90;;;;;;5074876;28;20373;-77
2022/09/08 03:04:10;;;;;;;1.70;1.60;;;17.70;99.90;;;;;;5056203;28;20029;-77
2022/09/08 03:06:37;;;;;;;1.83;1.73;;;17.70;99.90;;;;;;5074336;28;20050;-77
2022/09/08 03:09:04;;;;;;;1.90;1.80;;;17.70;99.90;;;;;;5073509;28;20370;-77
2022/09/08 03:11:31;;;;;;;2.60;1.35;;;17.70;99.90;;;;;;5074651;28;20458;-77
2022/09/08 03:13:58;;;;;;;2.17;1.63;;;17.70;99.90;;;;;;5073604;28;20039;-72
2022/09/08 03:16:23;;;;;;;3.17;1.20;;;17.70;99.90;;;;;;5074650;28;20047;-77
2022/09/08 03:18:50;;;;;;;1.63;1.52;;;17.70;99.90;;;;;;5073487;28;20017;-78
2022/09/08 03:21:16;;;;;;;2.13;1.40;;;17.70;99.90;;;;;;5073511;28;20028;-75
2022/09/08 03:23:42;;;;;;;1.98;1.50;;;17.70;99.90;;;;;;5065813;28;20045;-75
2022/09/08 03:26:14;;;;;;;1.52;1.10;;;17.60;99.90;;;;;;5072958;28;20486;-77
2022/09/08 03:28:41;;;;;;;4.05;1.45;;;17.60;99.90;;;;;;5074184;28;20028;-78
2022/09/08 03:31:12;;;;;;;3.08;1.10;;;17.60;99.90;;;;;;5073288;28;20067;-77
2022/09/08 03:33:38;;;;;;;2.97;1.10;;;17.50;99.90;;;;;;5074387;28;20474;-77
2022/09/08 03:36:07;;;;;;;2.08;0.80;;;17.50;99.90;;;;;;5073141;28;20048;-78
2022/09/08 03:38:34;;;;;;;2.08;1.30;;;17.50;99.90;;;;;;5073688;28;20032;-77
2022/09/08 03:41:00;;;;;;;2.03;1.20;;;17.50;99.90;;;;;;5072844;28;20067;-74
2022/09/08 03:43:26;;;;;;;2.22;1.38;;;17.50;99.90;;;;;;5072250;28;20124;-76
2022/09/08 03:45:52;;;;;;;2.85;1.20;;;17.50;99.90;;;;;;5073331;28;20467;-76
2022/09/08 03:48:17;;;;;;;1.88;1.13;;;17.40;99.90;;;;;;5072883;28;20039;-78
2022/09/08 03:50:43;;;;;;;1.90;1.50;;;17.40;99.90;;;;;;5074995;27;20044;-77
2022/09/08 03:53:10;;;;;;;1.63;0.93;;;17.30;99.90;;;;;;5072607;28;20028;-77
2022/09/08 03:55:39;;;;;;;2.67;1.38;;;17.20;99.90;;;;;;5073693;28;20139;-78
2022/09/08 03:58:05;;;;;;;2.13;1.20;;;17.20;99.90;;;;;;5073113;28;20025;-77
2022/09/08 04:00:31;;;;;;;1.20;1.10;;;17.20;99.90;;;;;;5074225;28;20036;-77
2022/09/08 04:02:57;;;;;;;1.35;0.90;;;17.10;99.90;;;;;;5073763;28;20017;-73
2022/09/08 04:05:22;;;;;;;1.92;1.13;;;17.10;99.90;;;;;;5072138;28;20029;-74
2022/09/08 04:07:48;;;;;;;1.80;1.08;;;17.10;99.90;;;;;;5073655;28;20028;-77
2022/09/08 04:10:15;;;;;;;2.10;1.00;;;17.00;99.90;;;;;;5072787;28;20025;-76
2022/09/08 04:12:41;;;;;;;1.55;0.90;;;17.10;99.90;;;;;;5073951;28;20070;-76
2022/09/08 04:15:08;;;;;;;0.95;0.80;;;17.00;99.90;;;;;;5072511;28;20028;-75
2022/09/08 04:17:35;;;;;;;1.77;1.20;;;17.10;99.90;;;;;;5072443;28;20101;-76
2022/09/08 04:20:02;;;;;;;1.88;1.20;;;17.00;99.90;;;;;;5072343;28;20200;-73
2022/09/08 04:22:27;;;;;;;0.80;0.80;;;16.90;99.90;;;;;;5074227;28;20376;-81
2022/09/08 04:24:53;;;;;;;2.75;1.10;;;16.90;99.90;;;;;;5073707;28;20028;-77
2022/09/08 04:27:21;;;;;;;2.63;1.20;;;16.80;99.90;;;;;;5072825;28;20020;-77
2022/09/08 04:29:47;;;;;;;1.30;1.00;;;16.70;99.90;;;;;;5072262;28;20028;-78
2022/09/08 04:32:12;;;;;;;0.82;0.80;;;16.80;99.90;;;;;;5072024;28;20051;-79
2022/09/08 04:34:38;;;;;;;2.35;1.15;;;16.70;99.90;;;;;;5072265;28;20470;-77
2022/09/08 04:37:04;;;;;;;2.38;0.98;;;16.70;99.90;;;;;;5052363;28;20055;-77
2022/09/08 04:39:31;;;;;;;2.20;1.35;;;16.60;99.90;;;;;;5072155;28;20082;-75
2022/09/08 04:41:56;;;;;;;2.35;1.00;;;16.60;99.90;;;;;;5072240;28;20095;-76
2022/09/08 04:44:22;;;;;;;1.80;0.77;;;16.60;99.90;;;;;;5071411;28;20469;-77
2022/09/08 04:46:48;;;;;;;1.85;1.00;;;16.60;99.90;;;;;;5072455;28;20052;-76
2022/09/08 04:49:14;;;;;;;1.27;1.17;;;16.60;99.90;;;;;;5071409;28;20024;-77
2022/09/08 04:51:39;;;;;;;1.77;1.00;;;16.50;99.90;;;;;;5073200;27;20131;-77
2022/09/08 04:54:05;;;;;;;1.88;0.93;;;16.50;99.90;;;;;;5071392;28;20027;-76
2022/09/08 04:56:32;;;;;;;2.15;1.10;;;16.50;99.90;;;;;;5071875;28;20048;-76
2022/09/08 04:59:00;;;;;;;2.45;1.10;;;16.50;99.90;;;;;;5072005;28;20083;-76
2022/09/08 05:01:29;;;;;;;3.83;1.02;;;16.50;99.90;;;;;;5071610;28;20029;-76
2022/09/08 05:03:58;;;;;;;1.27;1.00;;;16.40;99.90;;;;;;5072079;28;20025;-76
2022/09/08 05:06:24;;;;;;;1.15;0.90;;;16.40;99.90;;;;;;5070873;28;20033;-77
2022/09/08 05:08:55;;;;;;;3.63;0.90;;;16.40;99.90;;;;;;5072195;28;20029;-77
2022/09/08 05:11:21;;;;;;;4.82;1.20;;;16.50;99.90;;;;;;5070905;28;20108;-76
2022/09/08 05:13:49;;;;;;;1.27;1.15;;;16.40;99.90;;;;;;5071846;28;20036;-76
2022/09/08 05:16:20;;;;;;;2.50;0.80;;;16.40;99.90;;;;;;5071061;28;20071;-77
2022/09/08 05:18:51;;;;;;;1.00;0.90;;;16.40;99.90;;;;;;5071780;28;20032;-76
2022/09/08 05:21:17;;;;;;;2.85;0.90;;;16.50;99.90;;;;;;5071361;28;20473;-76
2022/09/08 05:23:43;;;;;;;2.47;0.90;;;16.50;99.90;;;;;;5072020;28;20028;-76
2022/09/08 05:26:14;;;;;;;2.70;1.00;;;16.60;99.90;;;;;;5070981;28;20039;-76
2022/09/08 05:28:41;;;;;;;3.20;1.10;;;16.60;99.90;;;;;;5072070;28;20031;-77
2022/09/08 05:31:09;;;;;;;0.88;0.85;;;16.60;99.90;;;;;;5071273;28;20056;-76
2022/09/08 05:33:35;;;;;;;1.88;1.20;;;16.60;99.90;;;;;;5072103;28;20029;-78
2022/09/08 05:36:01;;;;;;;2.80;1.00;;;16.60;99.90;;;;;;5071888;28;20109;-73
2022/09/08 05:38:27;;;;;;;5.97;1.25;;;16.60;99.90;;;;;;5071826;28;20036;-77
2022/09/08 05:40:53;;;;;;;3.45;1.33;;;16.60;99.90;;;;;;5069699;28;20055;-77
2022/09/08 05:43:19;;;;;;;3.63;1.40;;;16.60;99.90;;;;;;5070637;28;20103;-76
2022/09/08 05:45:46;;;;;;;2.67;0.77;;;16.50;99.90;;;;;;5053290;28;20028;-76
2022/09/08 05:48:13;;;;;;;2.08;1.00;;;16.60;99.90;;;;;;5070950;28;20039;-75
2022/09/08 05:50:42;;;;;;;2.10;1.05;;;16.60;99.90;;;;;;5072046;27;20044;-75
2022/09/08 05:53:07;;;;;;;2.58;1.08;;;16.60;99.90;;;;;;5070622;28;20104;-76
2022/09/08 05:55:34;;;;;;;2.15;1.30;;;16.60;99.90;;;;;;5072070;28;20549;-78
2022/09/08 05:57:59;;;;;;;2.50;1.15;;;16.60;99.90;;;;;;5071738;28;20056;-77
2022/09/08 06:00:25;;;;;;;1.40;0.80;;;16.50;99.90;;;;;;5071686;28;20063;-77
2022/09/08 06:02:51;;;;;;;0.90;0.90;;;16.50;99.90;;;;;;5072304;28;20146;-77
2022/09/08 06:05:21;;;;;;;1.88;0.73;;;16.50;99.90;;;;;;5071114;28;20071;-77
2022/09/08 06:07:48;;;;;;;0.70;0.70;;;16.50;99.90;;;;;;5063446;28;20160;-77
2022/09/08 06:10:14;;;;;;;2.05;0.63;;;16.40;99.90;;;;;;5070635;28;20355;-77
2022/09/08 06:12:40;;;;;;;3.38;1.00;;;16.50;99.90;;;;;;5071689;28;20031;-77
2022/09/08 06:15:06;;;;;;;1.75;0.82;;;16.40;99.90;;;;;;5070654;28;20032;-73
2022/09/08 06:17:32;;;;;;;2.90;0.80;;;16.40;99.90;;;;;;5070864;28;20083;-76
2022/09/08 06:19:58;;;;;;;1.70;0.85;;;16.40;99.90;;;;;;5071416;28;20060;-75
2022/09/08 06:22:23;;;;;;;1.27;0.90;;;16.40;99.90;;;;;;5070246;28;20040;-75
2022/09/08 06:24:49;;;;;;;2.30;0.98;;;16.40;99.90;;;;;;5071254;28;20495;-76
2022/09/08 06:27:58;;;;;;;2.28;0.70;;;16.50;99.90;;;;;;5070218;28;20389;-75
2022/09/08 06:30:23;;;;;;;1.63;0.90;;;16.50;99.90;;;;;;5065852;28;20043;-75
2022/09/08 06:33:07;;;;;;;2.67;0.93;;;16.50;99.90;;;;;;5070338;28;20107;-76
2022/09/08 06:35:47;;;;;;;2.88;0.73;;;16.50;99.90;;;;;;5063902;28;20045;-75
2022/09/08 06:38:19;;;;;;;4.05;0.90;;;16.50;99.90;;;;;;5069714;28;20020;-77
2022/09/08 06:40:49;;;;;;;1.48;0.80;;;16.50;99.90;;;;;;5064237;28;20029;-77
2022/09/08 06:43:18;;;;;;;2.47;0.60;;;16.40;99.90;;;;;;5072424;28;20017;-77
2022/09/08 06:45:48;;;;;;;1.27;0.80;;;16.40;99.90;;;;;;5071152;28;20107;-77
2022/09/08 06:48:33;;;;;;;0.90;0.80;;;16.50;99.90;;;;;;5070522;28;20024;-76
2022/09/08 06:51:01;;;;;;;2.88;1.10;;;16.50;99.90;;;;;;5066461;28;20290;-77
2022/09/08 06:53:38;;;;;;;1.13;0.70;;;16.50;99.90;;;;;;5073173;28;20045;-77
2022/09/08 06:56:21;;;;;;;1.33;0.70;;;16.50;99.90;;;;;;5075549;28;20040;-76
2022/09/08 06:58:47;;;;;;;1.30;0.70;;;16.50;99.90;;;;;;5074274;28;20029;-77
2022/09/08 07:01:36;;;;;;;2.13;0.70;;;16.50;99.90;;;;;;5076263;28;20376;-75
2022/09/08 07:04:34;;;;;;;2.97;0.98;;;16.50;99.90;;;;;;5068295;28;20119;-76
2022/09/08 07:07:08;;;;;;;2.28;0.80;;;16.60;99.90;;;;;;5074433;28;20028;-76
2022/09/08 07:09:38;;;;;;;1.45;0.55;;;16.60;99.90;;;;;;5073604;28;20044;-76
2022/09/08 07:12:10;;;;;;;5.30;1.30;;;16.60;99.90;;;;;;5074072;28;20031;-77
2022/09/08 07:15:03;;;;;;;24.00;2.25;;;16.60;99.90;;;;;;5049238;28;20036;-76
2022/09/08 07:17:35;;;;;;;18.83;1.95;;;16.70;99.90;;;;;;5073302;28;20044;-77
2022/09/08 07:20:02;;;;;;;8.80;1.60;;;16.70;99.90;;;;;;5073439;28;20032;-76
2022/09/08 07:22:45;;;;;;;5.43;1.10;;;16.80;99.90;;;;;;5071508;28;20032;-76
2022/09/08 07:25:20;;;;;;;3.65;1.15;;;16.80;99.90;;;;;;5066024;28;20117;-76
2022/09/08 07:27:52;;;;;;;8.38;1.55;;;16.90;99.90;;;;;;5073042;28;20094;-77
2022/09/08 07:30:18;;;;;;;9.57;1.27;;;16.90;99.90;;;;;;5071982;28;20055;-77
2022/09/08 07:32:51;;;;;;;11.82;1.35;;;17.00;99.90;;;;;;5073323;28;20032;-77
2022/09/08 07:35:38;;;;;;;9.77;1.50;;;17.10;99.90;;;;;;5070516;28;20086;-76
2022/09/08 07:38:12;;;;;;;6.38;1.60;;;17.20;99.90;;;;;;5071736;28;20074;-76
2022/09/08 07:40:45;;;;;;;2.60;0.60;;;17.30;99.90;;;;;;5073759;28;20358;-77
2022/09/08 07:43:13;;;;;;;1.77;0.63;;;17.50;99.90;;;;;;5068181;28;20051;-75
2022/09/08 07:46:04;;;;;;;2.40;0.70;;;17.60;99.90;;;;;;5069668;28;20031;-77
2022/09/08 07:48:56;;;;;;;3.88;1.17;;;17.60;99.90;;;;;;5071994;28;20056;-77
2022/09/08 07:51:27;;;;;;;3.30;0.60;;;17.80;99.90;;;;;;5060058;28;20048;-76
2022/09/08 07:54:12;;;;;;;0.95;0.55;;;17.90;99.90;;;;;;5073385;28;20032;-76
2022/09/08 07:56:52;;;;;;;13.27;1.27;;;18.10;99.90;;;;;;5072852;28;20037;-77
2022/09/08 07:59:23;;;;;;;;;;;18.30;99.90;;;;;;5072248;28;20075;-77
2022/09/08 08:02:08;;;;;;;5.60;1.00;;;18.50;99.90;;;;;;5072756;28;19954;-77
2022/09/08 08:05:03;;;;;;;1.65;0.50;;;18.60;99.90;;;;;;5071797;28;20027;-77
2022/09/08 08:07:33;;;;;;;1.33;0.88;;;18.60;99.90;;;;;;5063634;28;20024;-77
2022/09/08 08:10:09;;;;;;;;;;;18.80;99.90;;;;;;5073530;28;20067;-77
2022/09/08 08:12:47;;;;;;;1.55;0.50;;;18.80;99.90;;;;;;5072657;28;19909;-76
2022/09/08 08:16:00;;;;;;;0.90;0.40;;;19.00;99.90;;;;;;5064986;28;20500;-76
2022/09/08 08:18:48;;;;;;;10.20;1.17;;;19.10;99.90;;;;;;5071862;28;20397;-75
2022/09/08 08:21:16;;;;;;;2.85;0.55;;;19.40;99.90;;;;;;5071587;28;20028;-74
2022/09/08 08:23:45;;;;;;;3.17;1.25;;;19.50;99.90;;;;;;5072242;28;20074;-76
2022/09/08 08:26:29;;;;;;;1.45;0.88;;;19.60;99.90;;;;;;5071873;28;20494;-72
2022/09/08 08:29:30;;;;;;;4.22;0.60;;;19.60;99.90;;;;;;5068779;28;20024;-76
2022/09/08 08:32:19;;;;;;;9.25;0.75;;;19.70;99.90;;;;;;5071714;28;20449;-76
2022/09/08 08:34:51;;;;;;;4.38;0.93;;;19.70;99.90;;;;;;5072502;28;20048;-76
2022/09/08 08:37:23;;;;;;;2.42;0.93;;;19.80;99.90;;;;;;5070890;28;20423;-76
2022/09/08 08:39:52;;;;;;;2.92;0.77;;;19.90;99.90;;;;;;5071952;28;20128;-76
2022/09/08 08:42:36;;;;;;;2.20;0.60;;;19.90;99.90;;;;;;5070229;28;20036;-76
2022/09/08 08:45:05;;;;;;;0.50;0.50;;;20.00;99.90;;;;;;5071483;28;20270;-76
2022/09/08 08:47:55;;;;;;;0.93;0.55;;;20.00;99.90;;;;;;5068976;28;20110;-74
2022/09/08 08:51:15;;;;;;;1.65;0.80;;;20.00;99.90;;;;;;5070379;28;20025;-76
2022/09/08 08:54:09;;;;;;;0.80;0.40;;;20.00;99.90;;;;;;4989827;28;20041;-75
2022/09/08 08:56:58;;;;;;;0.73;0.50;;;20.00;99.90;;;;;;5068782;28;20051;-76
2022/09/08 08:59:48;;;;;;;2.80;0.63;;;20.10;99.90;;;;;;5071006;28;20035;-76
2022/09/08 09:02:38;;;;;;;0.82;0.60;;;20.30;99.90;;;;;;5067455;28;20082;-73
2022/09/08 09:05:22;;;;;;;1.38;0.55;;;20.30;99.90;;;;;;5071920;28;20051;-76
2022/09/08 09:07:54;;;;;;;0.73;0.60;;;20.40;99.90;;;;;;5070981;28;20149;-75
2022/09/08 09:10:34;;;;;;;4.65;0.68;;;20.40;99.90;;;;;;5070586;28;20035;-76
2022/09/08 09:13:24;;;;;;;1.75;0.60;;;20.40;99.90;;;;;;5071240;28;20473;-74
2022/09/08 09:16:43;;;;;;;0.77;0.50;;;20.40;99.90;;;;;;5071185;28;20432;-76
2022/09/08 09:19:33;;;;;;;1.02;0.47;;;20.50;99.90;;;;;;5013047;28;20032;-75
2022/09/08 09:22:12;;;;;;;;;;;20.50;99.90;;;;;;5052068;28;20032;-76
2022/09/08 09:24:56;;;;;;;1.67;0.40;;;20.50;99.90;;;;;;5051661;28;19913;-76
2022/09/08 09:27:41;;;;;;;2.33;0.45;;;20.50;99.90;;;;;;5050682;28;20036;-76
2022/09/08 09:30:20;;;;;;;0.75;0.75;;;20.30;99.90;;;;;;5051647;28;20029;-77
2022/09/08 09:33:04;;;;;;;2.13;0.80;;;20.20;99.90;;;;;;5050492;28;20036;-77
2022/09/08 09:36:19;;;;;;;0.60;0.60;;;20.10;99.90;;;;;;5050902;28;20021;-77
2022/09/08 09:38:59;;;;;;;2.25;0.50;;;20.10;99.90;;;;;;4951101;29;20027;-77
2022/09/08 09:41:54;;;;;;;1.55;0.47;;;20.00;99.90;;;;;;5048944;28;20036;-77
2022/09/08 09:44:43;;;;;;;1.15;0.60;;;20.00;99.90;;;;;;5050837;28;20169;-76
2022/09/08 09:47:33;;;;;;;0.98;0.70;;;20.10;99.90;;;;;;5051681;28;20112;-77
2022/09/08 09:50:11;;;;;;;1.67;0.70;;;20.20;99.90;;;;;;5051700;28;20060;-77
2022/09/08 09:52:56;;;;;;;1.38;0.77;;;20.40;99.90;;;;;;5050984;28;20032;-77
2022/09/08 09:55:57;;;;;;;2.40;0.60;;;20.60;99.90;;;;;;5050611;28;20033;-77
2022/09/08 09:58:59;;;;;;;0.50;0.50;;;20.70;99.90;;;;;;5050412;28;20024;-77
2022/09/08 10:02:08;;;;;;;1.85;0.60;;;20.90;99.90;;;;;;5050579;28;20061;-77
2022/09/08 10:05:12;;;;;;;2.65;0.60;;;21.00;99.90;;;;;;5050717;28;20052;-76
2022/09/08 10:07:52;;;;;;;1.13;0.47;;;21.00;99.90;;;;;;5070658;28;20033;-78
2022/09/08 10:10:44;;;;;;;2.00;0.50;;;21.30;99.90;;;;;;5070756;28;20025;-76
2022/09/08 10:13:24;;;;;;;1.15;0.93;;;21.70;99.90;;;;;;5074505;28;20070;-84
2022/09/08 10:15:56;;;;;;;0.95;0.70;;;22.30;99.90;;;;;;5071413;28;20032;-74
2022/09/08 10:18:42;;;;;;;3.03;1.23;;;22.80;99.90;;;;;;5070479;28;20508;-74
2022/09/08 10:21:32;;;;;;;1.30;0.50;;;23.00;99.90;;;;;;5071216;28;20485;-74
2022/09/08 10:24:45;;;;;;;2.10;0.70;;;23.00;99.90;;;;;;5071377;28;20158;-74
2022/09/08 10:27:23;;;;;;;2.58;0.52;;;23.00;99.20;;;;;;5071480;28;20101;-74
2022/09/08 10:30:12;;;;;;;1.58;0.50;;;22.90;98.70;;;;;;5075264;28;20116;-74
2022/09/08 10:32:59;;;;;;;2.15;0.70;;;22.70;98.80;;;;;;5077073;28;20020;-74
2022/09/08 10:35:41;;;;;;;2.92;0.70;;;22.60;98.80;;;;;;5094279;28;20099;-74
2022/09/08 10:38:44;;;;;;;3.00;0.40;;;22.40;98.60;;;;;;5095144;28;20024;-74
2022/09/08 10:41:16;;;;;;;1.92;0.68;;;22.40;99.20;;;;;;5095089;28;20020;-74
2022/09/08 10:44:11;;;;;;;1.15;0.60;;;22.20;99.10;;;;;;5095201;28;20035;-74
2022/09/08 10:46:59;;;;;;;1.15;0.70;;;22.20;99.30;;;;;;5094348;28;20032;-82
2022/09/08 10:49:54;;;;;;;0.77;0.50;;;22.10;99.10;;;;;;5093873;28;20020;-81
2022/09/08 10:52:37;;;;;;;1.90;0.60;;;22.10;98.80;;;;;;5093804;28;20508;-81
2022/09/08 10:55:37;;;;;;;1.00;0.40;;;22.10;98.90;;;;;;5094772;28;20052;-85
2022/09/08 10:58:21;;;;;;;0.70;0.68;;;22.00;99.10;;;;;;5095007;28;20043;-83
2022/09/08 11:01:08;;;;;;;1.60;0.63;;;21.90;99.50;;;;;;5095000;28;20115;-85
2022/09/08 11:04:03;;;;;;;1.23;0.75;;;21.90;99.50;;;;;;5093619;28;20102;-78
2022/09/08 11:06:37;;;;;;;1.10;0.50;;;21.80;99.70;;;;;;5077210;28;20466;-77
2022/09/08 11:09:20;;;;;;;0.63;0.43;;;21.70;99.80;;;;;;5072603;28;20032;-77
2022/09/08 11:12:14;;;;;;;1.35;0.45;;;21.50;99.90;;;;;;5074201;28;20029;-77
2022/09/08 11:15:03;;;;;;;2.33;0.50;;;21.50;99.90;;;;;;5073167;28;20074;-77
2022/09/08 11:17:41;;;;;;;1.48;0.65;;;21.60;99.90;;;;;;5073151;28;20040;-78
2022/09/08 11:20:17;;;;;;;3.22;0.80;;;21.60;99.80;;;;;;5073925;28;20500;-78
2022/09/08 11:23:00;;;;;;;2.33;0.68;;;21.80;99.60;;;;;;5087972;28;20031;-76
2022/09/08 11:25:46;;;;;;;1.33;0.55;;;21.80;99.70;;;;;;5093426;28;20024;-76
2022/09/08 11:28:18;;;;;;;3.53;0.88;;;21.80;99.90;;;;;;5093940;28;20120;-76
2022/09/08 11:31:17;;;;;;;1.63;0.70;;;21.70;99.90;;;;;;5093737;28;20028;-74
2022/09/08 11:34:05;;;;;;;3.15;0.60;;;21.60;99.90;;;;;;5080044;28;20024;-76
2022/09/08 11:37:09;;;;;;;1.80;0.70;;;21.70;99.90;;;;;;5093075;28;20113;-76
2022/09/08 11:40:17;;;;;;;1.75;0.50;;;22.00;99.90;;;;;;5092444;28;20020;-76
2022/09/08 11:43:16;;;;;;;1.77;0.60;;;22.20;99.90;;;;;;5091714;28;20024;-75
2022/09/08 11:46:05;;;;;;;1.65;0.63;;;22.30;99.90;;;;;;5093318;28;20518;-75
2022/09/08 11:49:05;;;;;;;1.95;0.70;;;22.20;99.90;;;;;;5093083;28;20036;-76
2022/09/08 11:51:58;;;;;;;5.88;0.65;;;22.00;99.90;;;;;;5091338;28;20374;-76
2022/09/08 11:54:54;;;;;;;1.15;0.60;;;21.70;99.90;;;;;;5092859;28;20057;-76
2022/09/08 11:57:30;;;;;;;2.67;0.80;;;21.60;99.90;;;;;;5092018;28;20630;-76
2022/09/08 12:00:07;;;;;;;2.13;0.60;;;21.50;99.90;;;;;;5092898;28;20024;-75
2022/09/08 12:02:57;;;;;;;2.28;0.63;;;21.40;99.90;;;;;;5092444;28;20163;-75
2022/09/08 12:05:41;;;;;;;1.67;0.60;;;21.40;99.90;;;;;;5084930;28;20028;-76
2022/09/08 12:08:12;;;;;;;0.98;0.57;;;21.40;99.90;;;;;;5073274;28;20048;-77
2022/09/08 12:10:57;;;;;;;1.23;0.68;;;21.50;99.90;;;;;;5072276;28;20025;-76
2022/09/08 12:13:38;;;;;;;2.83;0.80;;;21.60;99.90;;;;;;5072201;28;20032;-77
2022/09/08 12:16:13;;;;;;;1.77;0.70;;;21.70;99.90;;;;;;5073393;28;20059;-77
2022/09/08 12:18:44;;;;;;;2.70;0.80;;;21.70;99.90;;;;;;5069457;28;20049;-76
2022/09/08 12:21:44;;;;;;;3.45;1.00;;;21.70;99.80;;;;;;5069268;28;20020;-77
2022/09/08 12:24:24;;;;;;;3.40;0.80;;;21.80;99.50;;;;;;5072723;28;20489;-77
2022/09/08 12:27:39;;;;;;;4.45;0.63;;;21.70;99.80;;;;;;5072889;28;20432;-77
2022/09/08 12:30:18;;;;;;;3.08;0.50;;;21.80;99.40;;;;;;5073085;28;20028;-77
2022/09/08 12:33:25;;;;;;;2.00;0.70;;;21.60;99.90;;;;;;5072462;28;20032;-76
2022/09/08 12:35:58;;;;;;;3.63;0.93;;;21.50;99.90;;;;;;5072601;28;20452;-77
2022/09/08 12:38:26;;;;;;;2.80;1.00;;;21.60;99.90;;;;;;5072021;28;20028;-77
2022/09/08 12:41:14;;;;;;;1.00;0.60;;;21.70;99.90;;;;;;5072286;28;20115;-77
2022/09/08 12:43:41;;;;;;;2.08;0.90;;;21.80;99.90;;;;;;5072120;28;20060;-75
2022/09/08 12:46:29;;;;;;;2.33;0.95;;;21.90;99.90;;;;;;5072422;28;20068;-77
2022/09/08 12:49:16;;;;;;;1.02;0.70;;;22.20;99.90;;;;;;5072204;28;20029;-77
2022/09/08 12:51:42;;;;;;;1.30;0.52;;;23.20;99.20;;;;;;5070602;28;20059;-77
2022/09/08 12:54:23;;;;;;;3.70;0.93;;;24.20;97.50;;;;;;5072324;28;20020;-77
2022/09/08 12:56:55;;;;;;;1.90;0.70;;;25.10;95.90;;;;;;5072014;28;20063;-77
2022/09/08 12:59:48;;;;;;;2.92;0.85;;;25.60;94.90;;;;;;5071122;28;20055;-77
2022/09/08 13:02:34;;;;;;;2.08;0.80;;;26.10;93.70;;;;;;5072098;28;20056;-72
2022/09/08 13:05:48;;;;;;;2.20;0.60;;;26.50;92.60;;;;;;5071008;28;20024;-78
2022/09/08 13:08:19;;;;;;;4.13;0.70;;;26.50;90.90;;;;;;4990000;28;20037;-74
2022/09/08 13:10:46;;;;;;;3.63;0.85;;;26.10;90.70;;;;;;4990349;28;20105;-77
2022/09/08 13:13:31;;;;;;;1.05;0.80;;;25.60;91.00;;;;;;4990406;28;20498;-78
2022/09/08 13:16:20;;;;;;;1.08;0.70;;;25.20;91.40;;;;;;4990243;28;20523;-77
2022/09/08 13:18:54;;;;;;;2.83;0.70;;;25.00;91.40;;;;;;4990350;28;20137;-77
2022/09/08 13:21:38;;;;;;;1.23;0.50;;;25.00;91.60;;;;;;4990218;28;20531;-77
2022/09/08 13:24:30;;;;;;;1.27;0.70;;;25.00;90.60;;;;;;4990714;28;20045;-79
2022/09/08 13:27:16;;;;;;;1.90;0.60;;;24.80;90.60;;;;;;4990387;28;20383;-78
2022/09/08 13:29:53;;;;;;;1.23;0.57;;;24.70;90.30;;;;;;4988671;28;20206;-77
2022/09/08 13:32:37;;;;;;;2.25;0.65;;;24.60;90.70;;;;;;4991976;28;20104;-78
2022/09/08 13:35:23;;;;;;;0.73;0.50;;;24.40;90.10;;;;;;5000452;28;20491;-79
2022/09/08 13:38:16;;;;;;;1.75;0.60;;;24.20;90.40;;;;;;4988036;28;20030;-78